createdAt,value
2023-04-21T00:00:49.848Z,0.00
2023-04-21T00:01:49.838Z,0.00
2023-04-21T00:02:50.044Z,0.00
2023-04-21T00:03:49.925Z,0.00
2023-04-21T00:04:50.110Z,0.00
2023-04-21T00:05:49.890Z,0.00
2023-04-21T00:06:50.199Z,0.00
2023-04-21T00:07:49.795Z,0.00
2023-04-21T00:08:49.790Z,0.00
2023-04-21T00:09:49.777Z,0.00
2023-04-21T00:10:49.778Z,0.00
2023-04-21T00:11:49.770Z,0.00
2023-04-21T00:12:49.751Z,0.00
2023-04-21T00:13:49.749Z,0.00
2023-04-21T00:14:49.736Z,0.00
2023-04-21T00:22:59.855Z,0.00
2023-04-21T00:23:59.847Z,0.00
2023-04-21T00:24:59.847Z,0.00
2023-04-21T00:25:59.836Z,0.00
2023-04-21T00:26:59.837Z,0.00
2023-04-21T00:27:59.821Z,0.00
2023-04-21T00:28:59.818Z,0.00
2023-04-21T00:29:59.800Z,0.00
2023-04-21T00:30:59.847Z,0.00
2023-04-21T00:31:59.781Z,0.00
2023-04-21T00:32:59.812Z,0.00
2023-04-21T00:33:59.772Z,0.00
2023-04-21T00:34:59.759Z,0.00
2023-04-21T00:35:59.784Z,0.00
2023-04-21T00:36:59.743Z,0.00
2023-04-21T00:37:59.744Z,0.00
2023-04-21T00:38:59.722Z,0.00
2023-04-21T00:39:59.722Z,0.00
2023-04-21T00:41:00.823Z,0.00
2023-04-21T00:42:00.804Z,0.00
2023-04-21T00:43:00.806Z,0.00
2023-04-21T00:44:00.803Z,0.00
2023-04-21T00:45:00.807Z,0.00
2023-04-21T00:46:01.619Z,0.00
2023-04-21T00:47:00.794Z,0.00
2023-04-21T00:48:00.772Z,0.00
2023-04-21T00:49:00.732Z,0.00
2023-04-21T00:50:00.765Z,0.00
2023-04-21T00:51:00.721Z,0.00
2023-04-21T00:52:00.727Z,0.00
2023-04-21T00:53:00.701Z,0.00
2023-04-21T00:54:00.707Z,0.00
2023-04-21T00:55:00.696Z,0.00
2023-04-21T00:56:01.250Z,0.00
2023-04-21T00:57:02.838Z,0.00
2023-04-21T00:58:00.670Z,0.00
2023-04-21T00:59:00.658Z,0.00
2023-04-21T01:00:00.663Z,0.00
2023-04-21T01:01:00.665Z,0.00
2023-04-21T01:02:00.730Z,0.00
2023-04-21T01:03:00.747Z,0.00
2023-04-21T01:04:00.874Z,0.00
2023-04-21T01:05:00.608Z,0.00
2023-04-21T01:06:00.605Z,0.00
2023-04-21T01:07:00.604Z,0.00
2023-04-21T01:08:00.604Z,0.00
2023-04-21T01:09:00.597Z,0.00
2023-04-21T01:10:00.568Z,0.00
2023-04-21T01:11:00.575Z,0.00
2023-04-21T01:12:00.578Z,0.00
2023-04-21T01:13:00.553Z,0.00
2023-04-21T01:14:01.171Z,0.00
2023-04-21T01:15:00.543Z,0.00
2023-04-21T01:16:00.597Z,0.00
2023-04-21T01:17:00.579Z,0.00
2023-04-21T01:18:00.536Z,0.00
2023-04-21T01:19:00.504Z,0.00
2023-04-21T01:20:00.496Z,0.00
2023-04-21T01:21:00.495Z,0.00
2023-04-21T01:22:00.488Z,0.00
2023-04-21T01:23:00.487Z,0.00
2023-04-21T01:24:00.464Z,0.00
2023-04-21T01:25:00.481Z,0.00
2023-04-21T01:26:00.453Z,0.00
2023-04-21T01:27:00.445Z,0.00
2023-04-21T01:28:00.434Z,0.00
2023-04-21T01:29:00.467Z,0.00
2023-04-21T01:30:00.433Z,0.00
2023-04-21T01:31:00.434Z,0.00
2023-04-21T01:32:00.435Z,0.00
2023-04-21T01:33:00.469Z,0.00
2023-04-21T01:34:00.388Z,0.00
2023-04-21T01:35:00.385Z,0.00
2023-04-21T01:36:00.381Z,0.00
2023-04-21T01:37:00.378Z,0.00
2023-04-21T01:38:00.368Z,0.00
2023-04-21T01:39:00.369Z,0.00
2023-04-21T01:40:00.372Z,0.00
2023-04-21T01:41:00.336Z,0.00
2023-04-21T01:42:00.329Z,0.00
2023-04-21T01:43:00.323Z,0.00
2023-04-21T01:44:00.318Z,0.00
2023-04-21T01:45:00.306Z,0.00
2023-04-21T01:46:00.356Z,0.00
2023-04-21T01:47:00.290Z,0.00
2023-04-21T01:48:00.299Z,0.00
2023-04-21T01:49:01.193Z,0.00
2023-04-21T01:50:00.340Z,0.00
2023-04-21T01:51:00.267Z,0.00
2023-04-21T01:52:00.247Z,0.00
2023-04-21T01:53:00.248Z,0.00
2023-04-21T01:54:00.238Z,0.00
2023-04-21T01:55:00.231Z,0.00
2023-04-21T01:56:00.221Z,0.00
2023-04-21T01:57:00.239Z,0.00
2023-04-21T01:58:00.205Z,0.00
2023-04-21T01:59:00.208Z,0.00
2023-04-21T02:00:00.685Z,0.00
2023-04-21T02:01:00.320Z,0.00
2023-04-21T02:02:00.302Z,0.00
2023-04-21T02:03:00.850Z,0.00
2023-04-21T02:04:00.963Z,0.00
2023-04-21T02:05:00.154Z,0.00
2023-04-21T02:06:00.140Z,0.00
2023-04-21T02:07:00.170Z,0.00
2023-04-21T02:08:01.114Z,0.00
2023-04-21T02:09:00.102Z,0.00
2023-04-21T02:10:00.773Z,0.00
2023-04-21T02:11:00.096Z,0.00
2023-04-21T02:12:00.116Z,0.00
2023-04-21T02:13:00.074Z,0.00
2023-04-21T02:14:00.092Z,0.00
2023-04-21T02:15:00.063Z,0.00
2023-04-21T02:16:11.978Z,0.00
2023-04-21T02:17:02.063Z,0.00
2023-04-21T02:18:00.098Z,0.00
2023-04-21T02:19:00.036Z,0.00
2023-04-21T02:20:01.044Z,0.00
2023-04-21T02:21:01.012Z,0.00
2023-04-21T02:22:00.007Z,0.00
2023-04-21T02:22:59.987Z,0.00
2023-04-21T02:23:59.989Z,0.00
2023-04-21T02:24:59.988Z,0.00
2023-04-21T02:25:59.969Z,0.00
2023-04-21T02:26:59.959Z,0.00
2023-04-21T02:28:00.983Z,0.00
2023-04-21T02:29:00.692Z,0.00
2023-04-21T02:29:59.933Z,0.00
2023-04-21T02:30:59.940Z,0.00
2023-04-21T02:32:05.576Z,0.00
2023-04-21T02:33:01.980Z,0.00
2023-04-21T02:33:59.929Z,0.00
2023-04-21T02:34:59.911Z,0.00
2023-04-21T02:35:59.897Z,0.00
2023-04-21T02:36:59.881Z,0.00
2023-04-21T02:37:59.869Z,0.00
2023-04-21T02:38:59.869Z,0.00
2023-04-21T02:39:59.854Z,0.00
2023-04-21T02:40:59.836Z,0.00
2023-04-21T02:41:59.844Z,0.00
2023-04-21T02:42:59.820Z,0.00
2023-04-21T02:43:59.814Z,0.00
2023-04-21T02:44:59.805Z,0.00
2023-04-21T02:45:59.797Z,0.00
2023-04-21T02:46:59.871Z,0.00
2023-04-21T02:47:59.836Z,0.00
2023-04-21T02:48:59.779Z,0.00
2023-04-21T02:49:59.771Z,0.00
2023-04-21T02:50:59.824Z,0.00
2023-04-21T02:51:59.759Z,0.00
2023-04-21T02:52:59.753Z,0.00
2023-04-21T02:53:59.735Z,0.00
2023-04-21T02:54:59.720Z,0.00
2023-04-21T02:55:59.716Z,0.00
2023-04-21T02:56:59.720Z,0.00
2023-04-21T02:57:59.704Z,0.00
2023-04-21T02:58:59.733Z,0.00
2023-04-21T02:59:59.690Z,0.00
2023-04-21T03:00:59.716Z,0.00
2023-04-21T03:01:59.670Z,0.00
2023-04-21T03:02:59.769Z,0.00
2023-04-21T03:03:59.709Z,0.00
2023-04-21T03:04:59.640Z,0.00
2023-04-21T03:05:59.638Z,0.00
2023-04-21T03:06:59.627Z,0.00
2023-04-21T03:07:59.651Z,0.00
2023-04-21T03:08:59.613Z,0.00
2023-04-21T03:09:59.607Z,0.00
2023-04-21T03:10:59.612Z,0.00
2023-04-21T03:11:59.592Z,0.00
2023-04-21T03:12:59.589Z,0.00
2023-04-21T03:13:59.581Z,0.00
2023-04-21T03:14:59.569Z,0.00
2023-04-21T03:15:59.626Z,0.00
2023-04-21T03:16:59.617Z,0.00
2023-04-21T03:17:59.613Z,0.00
2023-04-21T03:18:59.549Z,0.00
2023-04-21T03:19:59.533Z,0.00
2023-04-21T03:20:59.550Z,0.00
2023-04-21T03:21:59.519Z,0.00
2023-04-21T03:22:59.514Z,0.00
2023-04-21T03:23:59.512Z,0.00
2023-04-21T03:24:59.504Z,0.00
2023-04-21T03:25:59.489Z,0.00
2023-04-21T03:26:59.476Z,0.00
2023-04-21T03:27:59.482Z,0.00
2023-04-21T03:28:59.487Z,0.00
2023-04-21T03:29:59.455Z,0.00
2023-04-21T03:30:59.449Z,0.00
2023-04-21T03:31:59.471Z,0.00
2023-04-21T03:32:59.450Z,0.00
2023-04-21T03:33:59.427Z,0.00
2023-04-21T03:34:59.403Z,0.00
2023-04-21T03:35:59.401Z,0.00
2023-04-21T03:36:59.399Z,0.00
2023-04-21T03:38:00.497Z,0.00
2023-04-21T03:39:12.717Z,0.00
2023-04-21T03:40:01.384Z,0.00
2023-04-21T03:40:59.374Z,0.00
2023-04-21T03:41:59.361Z,0.00
2023-04-21T03:42:59.347Z,0.00
2023-04-21T03:43:59.346Z,0.00
2023-04-21T03:44:59.325Z,0.00
2023-04-21T03:45:59.342Z,0.00
2023-04-21T03:46:59.309Z,0.00
2023-04-21T03:47:59.343Z,0.00
2023-04-21T03:49:03.232Z,0.00
2023-04-21T03:50:00.225Z,0.00
2023-04-21T03:50:59.287Z,0.00
2023-04-21T03:51:59.336Z,0.00
2023-04-21T03:52:59.266Z,0.00
2023-04-21T03:53:59.265Z,0.00
2023-04-21T03:54:59.239Z,0.00
2023-04-21T03:55:59.238Z,0.00
2023-04-21T03:56:59.228Z,0.00
2023-04-21T03:57:59.219Z,0.00
2023-04-21T03:58:59.216Z,0.00
2023-04-21T03:59:59.198Z,0.00
2023-04-21T04:00:59.188Z,0.00
2023-04-21T04:01:59.238Z,0.00
2023-04-21T04:02:59.257Z,0.00
2023-04-21T04:03:59.383Z,0.00
2023-04-21T04:04:59.273Z,5.62
2023-04-21T04:05:59.157Z,5.62
2023-04-21T04:06:59.148Z,5.62
2023-04-21T04:07:59.138Z,5.62
2023-04-21T04:08:59.128Z,5.62
2023-04-21T04:09:59.153Z,5.62
2023-04-21T04:10:59.120Z,5.62
2023-04-21T04:11:59.106Z,11.25
2023-04-21T04:12:59.789Z,11.25
2023-04-21T04:13:59.102Z,11.25
2023-04-21T04:14:59.086Z,11.25
2023-04-21T04:15:59.162Z,11.25
2023-04-21T04:16:59.085Z,11.25
2023-04-21T04:17:59.139Z,11.25
2023-04-21T04:18:59.056Z,16.88
2023-04-21T04:19:59.784Z,16.88
2023-04-21T04:21:00.031Z,16.88
2023-04-21T04:21:59.034Z,22.50
2023-04-21T04:22:59.009Z,28.12
2023-04-21T04:23:59.004Z,28.12
2023-04-21T04:24:59.024Z,33.75
2023-04-21T04:25:58.999Z,33.75
2023-04-21T04:26:58.985Z,39.38
2023-04-21T04:27:59.788Z,39.38
2023-04-21T04:28:59.970Z,45.00
2023-04-21T04:29:58.959Z,50.62
2023-04-21T04:30:58.978Z,56.25
2023-04-21T04:31:58.955Z,56.25
2023-04-21T04:32:58.946Z,56.25
2023-04-21T04:33:58.925Z,61.88
2023-04-21T04:34:58.964Z,67.50
2023-04-21T04:35:58.916Z,67.50
2023-04-21T04:36:58.903Z,73.12
2023-04-21T04:37:58.911Z,84.38
2023-04-21T04:38:58.888Z,95.62
2023-04-21T04:39:58.893Z,106.88
2023-04-21T04:40:58.907Z,95.62
2023-04-21T04:41:58.882Z,90.00
2023-04-21T04:42:58.848Z,84.38
2023-04-21T04:44:00.746Z,90.00
2023-04-21T04:44:58.844Z,106.88
2023-04-21T04:45:58.832Z,106.88
2023-04-21T04:46:59.895Z,106.88
2023-04-21T04:47:58.858Z,123.75
2023-04-21T04:48:59.731Z,123.75
2023-04-21T04:49:59.816Z,106.88
2023-04-21T04:50:59.786Z,106.88
2023-04-21T04:51:58.789Z,112.50
2023-04-21T04:52:58.785Z,112.50
2023-04-21T04:53:58.792Z,118.12
2023-04-21T04:54:58.765Z,118.12
2023-04-21T04:55:58.750Z,129.38
2023-04-21T04:56:58.735Z,135.00
2023-04-21T04:57:58.742Z,146.25
2023-04-21T04:58:58.729Z,151.88
2023-04-21T04:59:58.717Z,151.88
2023-04-21T05:00:58.722Z,157.50
2023-04-21T05:01:58.794Z,163.12
2023-04-21T05:02:58.850Z,174.38
2023-04-21T05:03:58.951Z,180.00
2023-04-21T05:04:58.811Z,185.62
2023-04-21T05:05:58.674Z,185.62
2023-04-21T05:06:58.688Z,191.25
2023-04-21T05:07:58.658Z,185.62
2023-04-21T05:08:58.646Z,191.25
2023-04-21T05:09:58.641Z,264.38
2023-04-21T05:10:58.625Z,382.50
2023-04-21T05:11:58.680Z,236.25
2023-04-21T05:12:58.620Z,191.25
2023-04-21T05:13:58.607Z,191.25
2023-04-21T05:14:58.601Z,202.50
2023-04-21T05:15:58.611Z,264.38
2023-04-21T05:16:58.731Z,343.12
2023-04-21T05:17:58.613Z,483.75
2023-04-21T05:18:58.568Z,523.12
2023-04-21T05:19:58.570Z,523.12
2023-04-21T05:20:58.563Z,410.62
2023-04-21T05:21:58.577Z,270.00
2023-04-21T05:22:58.571Z,241.88
2023-04-21T05:23:58.528Z,270.00
2023-04-21T05:24:58.536Z,208.12
2023-04-21T05:25:58.515Z,185.62
2023-04-21T05:26:58.551Z,180.00
2023-04-21T05:27:58.496Z,174.38
2023-04-21T05:28:58.541Z,174.38
2023-04-21T05:29:59.256Z,191.25
2023-04-21T05:30:58.514Z,208.12
2023-04-21T05:31:59.280Z,213.75
2023-04-21T05:32:58.527Z,213.75
2023-04-21T05:33:58.455Z,202.50
2023-04-21T05:34:58.451Z,208.12
2023-04-21T05:35:58.448Z,213.75
2023-04-21T05:36:59.324Z,213.75
2023-04-21T05:37:58.437Z,219.38
2023-04-21T05:38:58.412Z,236.25
2023-04-21T05:39:58.415Z,258.75
2023-04-21T05:40:58.406Z,258.75
2023-04-21T05:41:58.401Z,247.50
2023-04-21T05:42:58.388Z,230.62
2023-04-21T05:43:58.384Z,225.00
2023-04-21T05:44:58.426Z,213.75
2023-04-21T05:45:58.445Z,208.12
2023-04-21T05:46:58.423Z,202.50
2023-04-21T05:47:58.433Z,191.25
2023-04-21T05:48:58.353Z,185.62
2023-04-21T05:49:58.366Z,174.38
2023-04-21T05:50:58.331Z,163.12
2023-04-21T05:51:59.307Z,157.50
2023-04-21T05:52:58.311Z,151.88
2023-04-21T05:53:58.311Z,151.88
2023-04-21T05:54:58.306Z,151.88
2023-04-21T05:55:58.285Z,157.50
2023-04-21T05:56:59.234Z,163.12
2023-04-21T05:57:59.284Z,163.12
2023-04-21T05:58:58.330Z,163.12
2023-04-21T05:59:58.340Z,163.12
2023-04-21T06:00:58.338Z,168.75
2023-04-21T06:01:58.293Z,174.38
2023-04-21T06:02:58.419Z,180.00
2023-04-21T06:03:58.465Z,191.25
2023-04-21T06:04:58.373Z,202.50
2023-04-21T06:05:58.422Z,208.12
2023-04-21T06:06:58.195Z,219.38
2023-04-21T06:07:58.183Z,236.25
2023-04-21T06:08:58.201Z,253.12
2023-04-21T06:09:58.188Z,275.62
2023-04-21T06:10:58.163Z,354.38
2023-04-21T06:11:58.157Z,320.62
2023-04-21T06:12:58.153Z,382.50
2023-04-21T06:13:58.147Z,478.12
2023-04-21T06:14:58.129Z,759.38
2023-04-21T06:15:58.170Z,388.12
2023-04-21T06:16:58.109Z,388.12
2023-04-21T06:17:58.162Z,956.25
2023-04-21T06:18:58.142Z,990.00
2023-04-21T06:19:58.094Z,444.38
2023-04-21T06:20:58.098Z,680.62
2023-04-21T06:21:58.095Z,714.38
2023-04-21T06:22:58.089Z,742.50
2023-04-21T06:23:58.103Z,1046.25
2023-04-21T06:24:58.801Z,1440.00
2023-04-21T06:25:58.047Z,1462.50
2023-04-21T06:28:05.424Z,1395.00
2023-04-21T06:29:05.407Z,1344.38
2023-04-21T06:30:05.397Z,1113.75
2023-04-21T06:31:07.986Z,815.62
2023-04-21T06:32:05.444Z,708.75
2023-04-21T06:33:05.471Z,534.38
2023-04-21T06:34:05.380Z,421.88
2023-04-21T06:35:05.374Z,388.12
2023-04-21T06:36:05.383Z,427.50
2023-04-21T06:37:05.344Z,478.12
2023-04-21T06:38:05.338Z,511.88
2023-04-21T06:39:05.359Z,635.62
2023-04-21T06:40:05.360Z,708.75
2023-04-21T06:41:05.352Z,826.88
2023-04-21T06:42:05.337Z,843.75
2023-04-21T06:43:05.320Z,714.38
2023-04-21T06:44:05.290Z,714.38
2023-04-21T06:45:05.343Z,641.25
2023-04-21T06:46:05.275Z,624.38
2023-04-21T06:47:05.315Z,534.38
2023-04-21T06:48:05.328Z,416.25
2023-04-21T06:49:05.275Z,348.75
2023-04-21T06:50:05.275Z,320.62
2023-04-21T06:51:05.237Z,303.75
2023-04-21T06:52:05.266Z,309.38
2023-04-21T06:53:05.228Z,337.50
2023-04-21T06:54:06.313Z,399.38
2023-04-21T06:55:06.335Z,455.62
2023-04-21T06:56:06.337Z,540.00
2023-04-21T06:57:06.302Z,545.62
2023-04-21T06:58:06.277Z,517.50
2023-04-21T06:59:06.280Z,523.12
2023-04-21T07:00:06.869Z,630.00
2023-04-21T07:01:06.872Z,905.62
2023-04-21T07:02:06.298Z,781.88
2023-04-21T07:03:06.383Z,720.00
2023-04-21T07:04:06.416Z,776.25
2023-04-21T07:05:06.930Z,810.00
2023-04-21T07:06:06.229Z,855.00
2023-04-21T07:07:06.265Z,900.00
2023-04-21T07:08:06.228Z,838.12
2023-04-21T07:09:06.238Z,748.12
2023-04-21T07:10:06.210Z,646.88
2023-04-21T07:11:06.223Z,624.38
2023-04-21T07:12:06.211Z,540.00
2023-04-21T07:13:08.133Z,450.00
2023-04-21T07:14:06.185Z,466.88
2023-04-21T07:15:06.218Z,528.75
2023-04-21T07:16:06.178Z,607.50
2023-04-21T07:17:06.240Z,607.50
2023-04-21T07:18:06.224Z,562.50
2023-04-21T07:19:06.151Z,556.88
2023-04-21T07:20:06.153Z,562.50
2023-04-21T07:21:06.139Z,573.75
2023-04-21T07:22:06.132Z,624.38
2023-04-21T07:23:06.926Z,596.25
2023-04-21T07:24:06.156Z,562.50
2023-04-21T07:25:06.126Z,551.25
2023-04-21T07:26:06.084Z,590.62
2023-04-21T07:27:06.076Z,630.00
2023-04-21T07:28:06.093Z,680.62
2023-04-21T07:29:06.065Z,686.25
2023-04-21T07:30:06.065Z,675.00
2023-04-21T07:31:06.101Z,675.00
2023-04-21T07:32:06.870Z,669.38
2023-04-21T07:33:06.234Z,635.62
2023-04-21T07:34:06.861Z,641.25
2023-04-21T07:35:06.018Z,618.75
2023-04-21T07:36:06.018Z,562.50
2023-04-21T07:37:06.002Z,585.00
2023-04-21T07:38:05.988Z,556.88
2023-04-21T07:39:06.011Z,500.62
2023-04-21T07:40:05.996Z,461.25
2023-04-21T07:41:05.970Z,455.62
2023-04-21T07:42:05.958Z,461.25
2023-04-21T07:43:05.956Z,483.75
2023-04-21T07:44:05.939Z,478.12
2023-04-21T07:45:05.930Z,455.62
2023-04-21T07:46:05.997Z,444.38
2023-04-21T07:47:05.911Z,433.12
2023-04-21T07:48:05.942Z,433.12
2023-04-21T07:49:05.953Z,438.75
2023-04-21T07:50:05.927Z,427.50
2023-04-21T07:51:05.897Z,427.50
2023-04-21T07:52:05.873Z,427.50
2023-04-21T07:53:05.905Z,421.88
2023-04-21T07:54:05.875Z,416.25
2023-04-21T07:55:05.856Z,416.25
2023-04-21T07:56:05.837Z,416.25
2023-04-21T07:57:05.816Z,410.62
2023-04-21T07:58:05.824Z,405.00
2023-04-21T07:59:05.875Z,405.00
2023-04-21T08:00:05.879Z,399.38
2023-04-21T08:01:05.796Z,399.38
2023-04-21T08:02:05.862Z,399.38
2023-04-21T08:03:05.896Z,393.75
2023-04-21T08:04:05.901Z,393.75
2023-04-21T08:05:05.854Z,388.12
2023-04-21T08:06:05.977Z,382.50
2023-04-21T08:07:05.998Z,388.12
2023-04-21T08:08:05.731Z,388.12
2023-04-21T08:09:05.761Z,388.12
2023-04-21T08:10:05.713Z,382.50
2023-04-21T08:11:05.723Z,388.12
2023-04-21T08:12:05.706Z,399.38
2023-04-21T08:13:05.713Z,399.38
2023-04-21T08:14:05.705Z,399.38
2023-04-21T08:15:05.700Z,399.38
2023-04-21T08:16:05.775Z,399.38
2023-04-21T08:17:05.675Z,388.12
2023-04-21T08:18:05.688Z,371.25
2023-04-21T08:19:05.670Z,371.25
2023-04-21T08:20:05.649Z,376.88
2023-04-21T08:21:05.703Z,376.88
2023-04-21T08:22:05.783Z,376.88
2023-04-21T08:23:05.655Z,376.88
2023-04-21T08:24:05.605Z,371.25
2023-04-21T08:25:05.606Z,371.25
2023-04-21T08:26:06.388Z,371.25
2023-04-21T08:27:05.578Z,371.25
2023-04-21T08:28:05.631Z,371.25
2023-04-21T08:29:05.592Z,371.25
2023-04-21T08:30:05.595Z,371.25
2023-04-21T08:31:05.599Z,365.62
2023-04-21T08:32:05.637Z,360.00
2023-04-21T08:33:05.560Z,360.00
2023-04-21T08:34:05.549Z,354.38
2023-04-21T08:35:05.548Z,354.38
2023-04-21T08:36:12.491Z,343.12
2023-04-21T08:37:07.523Z,326.25
2023-04-21T08:38:05.530Z,320.62
2023-04-21T08:39:05.543Z,315.00
2023-04-21T08:40:05.476Z,320.62
2023-04-21T08:41:05.514Z,326.25
2023-04-21T08:42:05.501Z,326.25
2023-04-21T08:43:05.490Z,315.00
2023-04-21T08:44:05.459Z,315.00
2023-04-21T08:45:05.529Z,309.38
2023-04-21T08:46:05.512Z,309.38
2023-04-21T08:48:12.315Z,315.00
2023-04-21T08:49:12.287Z,315.00
2023-04-21T08:50:12.268Z,320.62
2023-04-21T08:51:12.255Z,326.25
2023-04-21T08:52:13.354Z,331.88
2023-04-21T08:53:13.350Z,343.12
2023-04-21T08:54:13.344Z,343.12
2023-04-21T08:55:13.373Z,343.12
2023-04-21T08:56:13.387Z,337.50
2023-04-21T08:57:15.927Z,331.88
2023-04-21T08:58:14.340Z,337.50
2023-04-21T08:59:13.394Z,348.75
2023-04-21T09:00:13.294Z,354.38
2023-04-21T09:01:13.335Z,337.50
2023-04-21T09:02:13.410Z,331.88
2023-04-21T09:03:24.974Z,320.62
2023-04-21T09:04:15.349Z,326.25
2023-04-21T09:05:13.580Z,298.12
2023-04-21T09:06:13.562Z,303.75
2023-04-21T09:07:13.232Z,315.00
2023-04-21T09:08:13.212Z,286.88
2023-04-21T09:09:13.190Z,292.50
2023-04-21T09:10:13.229Z,286.88
2023-04-21T09:11:13.199Z,275.62
2023-04-21T09:12:13.210Z,292.50
2023-04-21T09:13:13.196Z,326.25
2023-04-21T09:14:13.175Z,326.25
2023-04-21T09:15:13.237Z,303.75
2023-04-21T09:16:13.270Z,315.00
2023-04-21T09:17:13.221Z,303.75
2023-04-21T09:18:13.741Z,298.12
2023-04-21T09:19:13.131Z,315.00
2023-04-21T09:20:13.125Z,303.75
2023-04-21T09:21:13.166Z,309.38
2023-04-21T09:22:13.115Z,286.88
2023-04-21T09:23:13.106Z,303.75
2023-04-21T09:24:13.108Z,275.62
2023-04-21T09:25:13.090Z,303.75
2023-04-21T09:26:13.176Z,309.38
2023-04-21T09:27:13.063Z,315.00
2023-04-21T09:28:13.064Z,326.25
2023-04-21T09:29:13.095Z,309.38
2023-04-21T09:30:13.082Z,298.12
2023-04-21T09:31:13.817Z,275.62
2023-04-21T09:32:13.033Z,270.00
2023-04-21T09:33:27.299Z,275.62
2023-04-21T09:34:15.093Z,281.25
2023-04-21T09:35:13.033Z,281.25
2023-04-21T09:36:13.661Z,281.25
2023-04-21T09:37:13.019Z,281.25
2023-04-21T09:38:13.063Z,281.25
2023-04-21T09:39:34.478Z,275.62
2023-04-21T09:40:15.015Z,275.62
2023-04-21T09:41:13.016Z,270.00
2023-04-21T09:42:13.340Z,275.62
2023-04-21T09:43:12.949Z,275.62
2023-04-21T09:44:12.931Z,275.62
2023-04-21T09:46:14.002Z,275.62
2023-04-21T09:47:12.926Z,281.25
2023-04-21T09:48:12.916Z,292.50
2023-04-21T09:49:12.916Z,286.88
2023-04-21T09:50:13.125Z,281.25
2023-04-21T09:51:30.800Z,275.62
2023-04-21T09:52:18.953Z,275.62
2023-04-21T09:53:14.045Z,275.62
2023-04-21T09:54:28.355Z,275.62
2023-04-21T09:55:14.842Z,270.00
2023-04-21T09:56:12.872Z,258.75
2023-04-21T09:57:12.838Z,258.75
2023-04-21T09:58:12.811Z,253.12
2023-04-21T09:59:12.827Z,208.12
2023-04-21T10:00:12.835Z,258.75
2023-04-21T10:01:12.799Z,253.12
2023-04-21T10:02:13.133Z,253.12
2023-04-21T10:03:13.876Z,253.12
2023-04-21T10:04:13.005Z,253.12
2023-04-21T10:05:12.946Z,253.12
2023-04-21T10:06:13.874Z,241.88
2023-04-21T10:07:12.770Z,264.38
2023-04-21T10:08:13.283Z,225.00
2023-04-21T10:09:12.743Z,247.50
2023-04-21T10:10:13.272Z,202.50
2023-04-21T10:11:12.710Z,241.88
2023-04-21T10:12:12.725Z,247.50
2023-04-21T10:14:20.897Z,241.88
2023-04-21T10:15:20.569Z,247.50
2023-04-21T10:16:20.579Z,253.12
2023-04-21T10:17:20.587Z,253.12
2023-04-21T10:18:20.559Z,264.38
2023-04-21T10:19:21.760Z,264.38
2023-04-21T10:20:21.655Z,219.38
2023-04-21T10:21:21.638Z,241.88
2023-04-21T10:22:22.544Z,258.75
2023-04-21T10:23:21.596Z,258.75
2023-04-21T10:24:21.817Z,258.75
2023-04-21T10:25:21.593Z,253.12
2023-04-21T10:26:21.594Z,258.75
2023-04-21T10:27:21.589Z,258.75
2023-04-21T10:28:21.626Z,258.75
2023-04-21T10:29:21.616Z,258.75
2023-04-21T10:30:21.591Z,258.75
2023-04-21T10:31:21.630Z,258.75
2023-04-21T10:32:21.581Z,258.75
2023-04-21T10:33:21.540Z,253.12
2023-04-21T10:34:21.837Z,247.50
2023-04-21T10:35:21.561Z,241.88
2023-04-21T10:36:21.510Z,236.25
2023-04-21T10:37:22.046Z,247.50
2023-04-21T10:38:21.500Z,241.88
2023-04-21T10:39:21.576Z,219.38
2023-04-21T10:40:33.015Z,196.88
2023-04-21T10:41:22.476Z,202.50
2023-04-21T10:42:21.453Z,185.62
2023-04-21T10:43:21.445Z,174.38
2023-04-21T10:44:21.792Z,174.38
2023-04-21T10:45:21.430Z,174.38
2023-04-21T10:46:21.483Z,174.38
2023-04-21T10:47:21.464Z,168.75
2023-04-21T10:48:21.415Z,174.38
2023-04-21T10:49:21.468Z,174.38
2023-04-21T10:50:21.389Z,174.38
2023-04-21T10:51:22.411Z,174.38
2023-04-21T10:52:21.402Z,163.12
2023-04-21T10:53:21.393Z,163.12
2023-04-21T10:54:21.494Z,157.50
2023-04-21T10:55:21.586Z,157.50
2023-04-21T10:56:21.680Z,157.50
2023-04-21T10:57:21.411Z,163.12
2023-04-21T10:58:54.495Z,168.75
2023-04-21T10:59:21.324Z,174.38
2023-04-21T11:00:21.385Z,180.00
2023-04-21T11:01:22.255Z,185.62
2023-04-21T11:02:23.192Z,202.50
2023-04-21T11:03:22.464Z,219.38
2023-04-21T11:04:21.848Z,236.25
2023-04-21T11:05:27.987Z,264.38
2023-04-21T11:06:21.255Z,270.00
2023-04-21T11:07:21.306Z,292.50
2023-04-21T11:08:22.224Z,253.12
2023-04-21T11:09:22.069Z,247.50
2023-04-21T11:10:21.292Z,213.75
2023-04-21T11:11:21.275Z,230.62
2023-04-21T11:12:24.041Z,219.38
2023-04-21T11:13:22.203Z,225.00
2023-04-21T11:14:21.445Z,225.00
2023-04-21T11:15:21.179Z,225.00
2023-04-21T11:16:21.216Z,253.12
2023-04-21T11:17:21.183Z,253.12
2023-04-21T11:18:21.156Z,225.00
2023-04-21T11:19:21.152Z,236.25
2023-04-21T11:20:21.149Z,241.88
2023-04-21T11:21:22.182Z,219.38
2023-04-21T11:22:21.991Z,196.88
2023-04-21T11:23:21.113Z,219.38
2023-04-21T11:24:21.357Z,241.88
2023-04-21T11:25:22.077Z,241.88
2023-04-21T11:26:21.101Z,225.00
2023-04-21T11:27:21.090Z,241.88
2023-04-21T11:28:21.575Z,247.50
2023-04-21T11:29:21.083Z,253.12
2023-04-21T11:30:21.085Z,253.12
2023-04-21T11:31:21.085Z,258.75
2023-04-21T11:32:21.032Z,258.75
2023-04-21T11:33:21.111Z,264.38
2023-04-21T11:34:21.288Z,264.38
2023-04-21T11:35:22.019Z,258.75
2023-04-21T11:36:21.041Z,253.12
2023-04-21T11:37:21.006Z,247.50
2023-04-21T11:38:23.873Z,253.12
2023-04-21T11:39:21.797Z,247.50
2023-04-21T11:40:22.015Z,247.50
2023-04-21T11:41:20.986Z,236.25
2023-04-21T11:42:20.956Z,219.38
2023-04-21T11:43:20.956Z,241.88
2023-04-21T11:44:20.945Z,247.50
2023-04-21T11:45:22.463Z,264.38
2023-04-21T11:46:21.982Z,275.62
2023-04-21T11:47:21.091Z,281.25
2023-04-21T11:48:20.936Z,275.62
2023-04-21T11:49:20.912Z,286.88
2023-04-21T11:50:20.899Z,298.12
2023-04-21T11:51:22.336Z,309.38
2023-04-21T11:52:21.904Z,315.00
2023-04-21T11:53:20.926Z,309.38
2023-04-21T11:54:20.867Z,292.50
2023-04-21T11:55:20.858Z,281.25
2023-04-21T11:56:20.859Z,275.62
2023-04-21T11:57:20.872Z,275.62
2023-04-21T11:58:20.824Z,264.38
2023-04-21T11:59:25.418Z,225.00
2023-04-21T12:00:20.849Z,236.25
2023-04-21T12:01:20.841Z,275.62
2023-04-21T12:02:21.643Z,281.25
2023-04-21T12:03:53.657Z,303.75
2023-04-21T12:04:20.898Z,315.00
2023-04-21T12:05:20.828Z,315.00
2023-04-21T12:06:20.840Z,315.00
2023-04-21T12:07:20.755Z,303.75
2023-04-21T12:08:20.742Z,292.50
2023-04-21T12:09:20.808Z,298.12
2023-04-21T12:10:20.720Z,298.12
2023-04-21T12:11:20.727Z,292.50
2023-04-21T12:12:20.708Z,298.12
2023-04-21T12:13:20.724Z,303.75
2023-04-21T12:14:20.715Z,298.12
2023-04-21T12:15:20.695Z,292.50
2023-04-21T12:16:20.702Z,286.88
2023-04-21T12:17:20.671Z,292.50
2023-04-21T12:18:20.670Z,303.75
2023-04-21T12:19:20.671Z,281.25
2023-04-21T12:20:20.664Z,303.75
2023-04-21T12:21:20.629Z,298.12
2023-04-21T12:22:20.622Z,241.88
2023-04-21T12:23:20.608Z,225.00
2023-04-21T12:24:20.611Z,253.12
2023-04-21T12:25:20.613Z,236.25
2023-04-21T12:26:20.626Z,236.25
2023-04-21T12:27:20.583Z,230.62
2023-04-21T12:28:20.594Z,185.62
2023-04-21T12:29:20.566Z,230.62
2023-04-21T12:30:20.557Z,225.00
2023-04-21T12:31:20.655Z,225.00
2023-04-21T12:32:20.618Z,225.00
2023-04-21T12:33:20.607Z,191.25
2023-04-21T12:34:20.522Z,168.75
2023-04-21T12:35:21.136Z,174.38
2023-04-21T12:36:21.130Z,191.25
2023-04-21T12:37:20.506Z,185.62
2023-04-21T12:38:20.489Z,191.25
2023-04-21T12:39:20.504Z,196.88
2023-04-21T12:40:20.476Z,202.50
2023-04-21T12:41:20.496Z,236.25
2023-04-21T12:42:20.465Z,225.00
2023-04-21T12:43:20.468Z,230.62
2023-04-21T12:44:20.456Z,219.38
2023-04-21T12:45:20.432Z,213.75
2023-04-21T12:46:20.508Z,208.12
2023-04-21T12:47:20.445Z,213.75
2023-04-21T12:48:20.549Z,219.38
2023-04-21T12:49:20.433Z,219.38
2023-04-21T12:50:20.406Z,219.38
2023-04-21T12:51:20.432Z,219.38
2023-04-21T12:52:20.376Z,219.38
2023-04-21T12:53:20.401Z,225.00
2023-04-21T12:54:20.381Z,230.62
2023-04-21T12:55:20.356Z,230.62
2023-04-21T12:56:20.504Z,236.25